This is the latest recevied weather packets stored in our database for station/object HA9OZD-17. If no packets are shown the sender has not sent any weather packets the latest 10 day(s).
| Time | Temp. | Humidity | Pressure | Rain* | Wind** | Luminosity | Snow |
|---|---|---|---|---|---|---|---|
| 1777660897 | 13.89° C | 27% | 900 hPa | - | - | - | - |
| 1777657296 | 15.56° C | 24% | 900 hPa | - | - | - | - |
| 1777653695 | 16.11° C | 23% | 900 hPa | - | - | - | - |
| 1777650094 | 17.22° C | 21% | 900 hPa | - | - | - | - |
| 1777646492 | 17.78° C | 21% | 900 hPa | - | - | - | - |
| 1777642891 | 20.56° C | 17% | 901 hPa | - | - | - | - |
| 1777639290 | 22.22° C | 14% | 901 hPa | - | - | - | - |
| 1777635689 | 18.89° C | 18% | 901 hPa | - | - | - | - |
| 1777632088 | 15° C | 23% | 902 hPa | - | - | - | - |
| 1777628486 | 12.22° C | 26% | 902 hPa | - | - | - | - |
| 1777624885 | 11.11° C | 28% | 902 hPa | - | - | - | - |
| 1777621284 | 9.44° C | 30% | 902 hPa | - | - | - | - |
| 1777617683 | 8.33° C | 32% | 901 hPa | - | - | - | - |
| 1777614082 | 7.78° C | 33% | 901 hPa | - | - | - | - |
| 1777610481 | 7.22° C | 34% | 901 hPa | - | - | - | - |
| 1777606879 | 6.67° C | 35% | 901 hPa | - | - | - | - |
| 1777603278 | 6.67° C | 35% | 901 hPa | - | - | - | - |
| 1777599711 | 7.22° C | 34% | 901 hPa | - | - | - | - |
| 1777596110 | 7.22° C | 34% | 901 hPa | - | - | - | - |
| 1777592508 | 7.78° C | 34% | 901 hPa | - | - | - | - |
| 1777588907 | 7.78° C | 33% | 901 hPa | - | - | - | - |
| 1777585306 | 8.33° C | 32% | 901 hPa | - | - | - | - |
| 1777581705 | 9.44° C | 30% | 901 hPa | - | - | - | - |
| 1777578104 | 10.56° C | 28% | 901 hPa | - | - | - | - |
| 1777574503 | 12.78° C | 24% | 901 hPa | - | - | - | - |
* Rain since midnight (hover to see other rain measurements)
** Current wind speed in m/s (hover to see current wind gust speed)